Airey, Mississippi
Current Conditions -  °F | °C
As of 11:53 PM on Friday 31 Oct 2014 (Local Time) from KGPT Reporting Station
Clear Clear  
Wind Chill: 55°   Ceiling: Unl
Heat Index: 55°   Visibility: 10mi
Dew Point: 37°   Wind: 20mph
Humidity: 51%   Direction: 340°NNW
Pressure: 30.17"   Gusts: 28mph
Location:  30.603°N, 89.0932°W
Report Text: KGPT 010453Z AUTO 34017G24KT 10SM CLR 13/03 A3017 RMK AO2 PK WND 34026/0428 SLP217 T01280028 $
Loading
Personal Weather Stations






























Interactive Weather Map New forecast layout! Learn more

10-Day Weather Forecast

Advertisements
Track Severe Weather on mobile